Time;durP1;ratioP1;P1;durP2;ratioP2;P2;SDS_P1;SDS_P2;PMS_P1;PMS_P2;Temp;Humidity;BMP_temperature;BMP_pressure;BME280_temperature;BME280_humidity;BME280_pressure;Samples;Min_cycle;Max_cycle;Signal;HPM_P1;HPM_P2
2022/02/06 00:00:31;;;;;;;4.17;1.83;;;5.20;97.30;;;;;;5009771;28;20181;-79
2022/02/06 00:02:57;;;;;;;3.33;1.70;;;5.20;97.30;;;;;;5013264;28;20216;-81
2022/02/06 00:05:23;;;;;;;4.80;2.43;;;5.20;97.30;;;;;;5013629;28;20447;-79
2022/02/06 00:07:49;;;;;;;3.43;1.83;;;5.20;97.30;;;;;;5013825;28;20431;-79
2022/02/06 00:10:16;;;;;;;3.60;1.93;;;5.20;97.30;;;;;;5013171;28;20455;-79
2022/02/06 00:12:42;;;;;;;5.50;2.37;;;5.20;97.30;;;;;;5014185;28;20455;-79
2022/02/06 00:15:08;;;;;;;8.53;2.10;;;5.20;97.30;;;;;;5011408;28;20424;-79
2022/02/06 00:17:34;;;;;;;2.53;2.20;;;5.20;97.30;;;;;;5011447;28;20180;-79
2022/02/06 00:20:00;;;;;;;4.23;1.90;;;5.20;97.30;;;;;;5011634;28;20932;-78
2022/02/06 00:22:39;;;;;;;9.73;1.87;;;5.20;97.30;;;;;;5011989;28;20706;-80
2022/02/06 00:27:51;;;;;;;4.60;1.70;;;5.10;97.30;;;;;;5013456;28;20420;-80
2022/02/06 00:33:07;;;;;;;3.63;1.93;;;5.10;97.30;;;;;;5014768;28;20443;-79
2022/02/06 00:36:01;;;;;;;4.90;2.30;;;5.00;97.30;;;;;;5013722;28;20432;-79
2022/02/06 00:43:10;;;;;;;4.17;2.20;;;4.80;97.30;;;;;;5013081;28;20216;-79
2022/02/06 00:45:35;;;;;;;3.07;1.67;;;4.80;97.30;;;;;;5010739;28;20173;-79
2022/02/06 00:48:01;;;;;;;3.63;2.17;;;4.70;97.30;;;;;;5010688;28;20177;-79
2022/02/06 00:50:28;;;;;;;2.50;1.50;;;4.70;97.30;;;;;;5011591;28;20191;-79
2022/02/06 00:53:02;;;;;;;2.53;1.97;;;4.70;97.30;;;;;;5011008;28;20205;-79
2022/02/06 00:55:28;;;;;;;3.40;1.67;;;4.70;97.30;;;;;;5010777;28;20426;-79
2022/02/06 00:57:54;;;;;;;3.60;2.00;;;4.60;97.30;;;;;;5013202;28;20502;-80
2022/02/06 01:00:19;;;;;;;3.40;1.90;;;4.60;97.30;;;;;;5011609;28;20184;-79
2022/02/06 01:02:45;;;;;;;6.27;2.00;;;4.50;97.30;;;;;;5011110;28;20237;-79
2022/02/06 01:05:10;;;;;;;5.90;2.57;;;4.50;97.30;;;;;;5011301;28;20173;-79
2022/02/06 01:07:36;;;;;;;5.43;2.77;;;4.50;97.30;;;;;;5012923;28;20181;-80
2022/02/06 01:10:03;;;;;;;3.60;1.70;;;4.40;97.30;;;;;;5011422;28;20173;-80
2022/02/06 01:12:31;;;;;;;4.63;1.67;;;4.40;97.30;;;;;;5010995;28;20192;-80
2022/02/06 01:15:08;;;;;;;4.27;2.80;;;4.40;97.30;;;;;;5011075;28;20502;-79
2022/02/06 01:17:42;;;;;;;4.87;1.63;;;4.30;97.30;;;;;;5011727;28;20420;-80
2022/02/06 01:20:22;;;;;;;4.97;2.07;;;4.30;97.30;;;;;;5011888;28;20996;-80
2022/02/06 01:23:10;;;;;;;4.70;2.30;;;4.30;97.30;;;;;;5011598;28;20832;-80
2022/02/06 01:25:55;;;;;;;3.67;1.80;;;4.20;97.30;;;;;;5010757;28;20460;-80
2022/02/06 01:28:28;;;;;;;5.60;2.17;;;4.20;97.30;;;;;;5011016;28;20774;-79
2022/02/06 01:31:02;;;;;;;2.60;1.93;;;4.20;97.30;;;;;;5011748;28;20427;-80
2022/02/06 01:33:33;;;;;;;4.27;2.33;;;4.10;97.30;;;;;;5012465;28;20444;-79
2022/02/06 01:36:07;;;;;;;6.33;1.97;;;4.10;97.30;;;;;;5011150;28;20420;-81
2022/02/06 01:38:49;;;;;;;9.37;2.10;;;4.10;97.30;;;;;;5012197;28;20442;-81
2022/02/06 01:41:21;;;;;;;4.00;2.00;;;4.10;97.30;;;;;;5014442;28;20475;-80
2022/02/06 01:43:53;;;;;;;5.10;1.97;;;4.10;97.30;;;;;;5018310;28;20454;-80
2022/02/06 02:05:33;;;;;;;3.60;1.77;;;4.10;97.30;;;;;;5014333;28;20934;-80
2022/02/06 02:10:54;;;;;;;2.93;2.03;;;4.10;97.30;;;;;;5014244;28;20477;-81
2022/02/06 02:21:04;;;;;;;6.73;2.17;;;4.10;97.30;;;;;;5015095;28;20691;-81
2022/02/06 02:45:14;;;;;;;3.33;1.77;;;4.70;97.30;;;;;;5016440;28;20455;-80
2022/02/06 02:47:46;;;;;;;2.83;2.03;;;4.70;97.30;;;;;;5015910;28;20476;-82
2022/02/06 02:50:19;;;;;;;5.20;2.33;;;4.80;97.30;;;;;;5014537;28;20499;-83
2022/02/06 02:53:08;;;;;;;6.20;2.10;;;4.80;97.30;;;;;;5014664;28;20446;-81
2022/02/06 02:55:46;;;;;;;4.80;1.87;;;4.90;97.30;;;;;;5015065;28;20478;-79
2022/02/06 03:05:36;;;;;;;2.40;1.73;;;4.90;97.30;;;;;;5016132;28;20435;-80
2022/02/06 03:08:04;;;;;;;2.93;1.83;;;5.00;97.30;;;;;;5013660;28;20416;-79
2022/02/06 03:10:31;;;;;;;6.73;2.20;;;5.00;97.30;;;;;;5014212;28;20444;-80
2022/02/06 03:13:00;;;;;;;4.93;1.97;;;5.00;97.30;;;;;;5013923;28;20472;-79
2022/02/06 03:15:38;;;;;;;7.27;2.00;;;5.10;97.30;;;;;;5014227;28;20432;-80
2022/02/06 03:18:06;;;;;;;3.73;1.93;;;5.10;97.30;;;;;;5014173;28;20424;-79
2022/02/06 03:20:34;;;;;;;2.27;1.57;;;5.10;97.30;;;;;;5014650;28;20448;-80
2022/02/06 03:23:03;;;;;;;2.90;1.80;;;5.10;97.30;;;;;;5015823;28;20562;-79
2022/02/06 03:25:29;;;;;;;4.67;1.73;;;5.10;97.30;;;;;;5016139;28;20423;-80
2022/02/06 03:27:56;;;;;;;2.37;1.60;;;5.10;97.30;;;;;;5014353;28;20420;-79
2022/02/06 03:30:22;;;;;;;5.70;2.40;;;5.20;97.30;;;;;;5015118;28;20220;-79
2022/02/06 03:32:53;;;;;;;2.80;1.90;;;5.20;97.30;;;;;;5015265;28;20428;-82
2022/02/06 03:42:11;;;;;;;3.47;1.60;;;5.20;97.30;;;;;;5014016;28;20517;-79
2022/02/06 03:44:48;;;;;;;4.70;1.50;;;5.20;97.30;;;;;;5011738;28;20428;-79
2022/02/06 03:47:19;;;;;;;4.73;2.70;;;5.20;97.30;;;;;;5013973;28;20431;-78
2022/02/06 03:50:05;;;;;;;7.17;2.40;;;5.20;97.30;;;;;;5013307;28;20904;-79
2022/02/06 03:52:37;;;;;;;4.80;1.50;;;5.20;97.30;;;;;;5011636;28;20486;-78
2022/02/06 03:55:04;;;;;;;4.83;1.60;;;5.20;97.30;;;;;;5011613;28;20427;-79
2022/02/06 03:57:29;;;;;;;4.80;1.53;;;5.20;97.30;;;;;;5011017;28;21055;-79
2022/02/06 03:59:56;;;;;;;4.70;1.83;;;5.30;97.30;;;;;;5012365;28;20404;-78
2022/02/06 04:22:34;;;;;;;2.47;1.53;;;5.40;97.30;;;;;;4992198;28;20514;-79
2022/02/06 04:25:00;;;;;;;3.60;1.50;;;5.50;97.30;;;;;;5007404;28;20425;-80
2022/02/06 04:27:26;;;;;;;2.33;1.43;;;5.50;97.30;;;;;;4991956;28;20181;-78
2022/02/06 04:29:53;;;;;;;8.27;1.43;;;5.50;97.30;;;;;;5007053;28;20268;-79
2022/02/06 04:32:19;;;;;;;1.03;1.00;;;5.50;97.30;;;;;;5009993;28;20708;-78
2022/02/06 04:34:45;;;;;;;3.77;1.40;;;5.50;97.30;;;;;;5011202;28;20432;-78
2022/02/06 04:42:37;;;;;;;4.33;1.67;;;5.60;97.30;;;;;;5012602;28;20983;-80
2022/02/06 05:15:03;;;;;;;2.80;1.57;;;5.80;97.30;;;;;;5016389;28;20423;-80
2022/02/06 05:18:07;;;;;;;1.50;1.37;;;5.80;97.30;;;;;;5016851;28;20930;-81
2022/02/06 05:20:35;;;;;;;2.70;1.30;;;5.80;97.30;;;;;;5014540;28;20428;-77
2022/02/06 05:23:19;;;;;;;2.83;1.30;;;5.90;97.30;;;;;;5014587;28;20463;-78
2022/02/06 05:28:39;;;;;;;1.10;0.93;;;5.90;97.30;;;;;;5015430;28;20390;-78
2022/02/06 05:31:15;;;;;;;1.57;1.23;;;5.90;97.30;;;;;;5015690;28;20747;-78
2022/02/06 05:33:41;;;;;;;1.30;1.20;;;6.00;97.30;;;;;;5014143;28;20411;-78
2022/02/06 05:36:09;;;;;;;1.07;1.00;;;6.00;97.30;;;;;;5013918;28;20431;-78
2022/02/06 05:38:35;;;;;;;4.73;1.47;;;6.00;97.30;;;;;;5014411;28;20416;-78
2022/02/06 05:41:01;;;;;;;2.97;1.10;;;6.10;97.30;;;;;;5016932;28;20466;-79
2022/02/06 05:43:26;;;;;;;1.83;1.20;;;6.10;97.30;;;;;;5030608;28;20207;-80
2022/02/06 05:45:52;;;;;;;3.03;1.17;;;6.10;97.30;;;;;;5033923;28;20187;-81
2022/02/06 05:48:19;;;;;;;2.10;1.10;;;6.10;97.30;;;;;;5032788;28;20182;-80
2022/02/06 05:50:44;;;;;;;4.00;1.50;;;6.00;97.30;;;;;;5032661;28;20173;-81
2022/02/06 05:53:11;;;;;;;2.20;1.30;;;6.00;97.30;;;;;;5032630;28;20451;-79
2022/02/06 05:55:38;;;;;;;2.20;1.30;;;6.00;97.30;;;;;;5031427;28;20191;-79
2022/02/06 05:58:05;;;;;;;2.57;1.40;;;6.00;97.30;;;;;;5032635;28;20432;-80
2022/02/06 06:00:30;;;;;;;1.53;1.20;;;5.90;97.30;;;;;;5032848;28;20442;-80
2022/02/06 06:02:56;;;;;;;1.37;1.10;;;5.90;97.30;;;;;;5035274;28;20482;-78
2022/02/06 06:05:22;;;;;;;1.27;1.20;;;5.90;97.30;;;;;;5016325;28;20173;-79
2022/02/06 06:07:48;;;;;;;2.10;1.30;;;5.90;97.30;;;;;;5017106;28;20467;-79
2022/02/06 06:10:14;;;;;;;2.60;1.10;;;5.90;97.30;;;;;;5032188;28;20929;-81
2022/02/06 06:12:40;;;;;;;1.20;1.10;;;5.90;97.30;;;;;;5033008;28;20205;-80
2022/02/06 06:15:06;;;;;;;4.13;1.13;;;5.90;97.30;;;;;;5033271;28;20181;-79
2022/02/06 06:17:34;;;;;;;4.07;1.27;;;5.90;97.30;;;;;;5033301;28;20424;-79
2022/02/06 06:20:00;;;;;;;1.87;1.30;;;5.90;97.30;;;;;;5031866;28;20463;-80
2022/02/06 06:22:26;;;;;;;3.70;1.10;;;5.90;97.30;;;;;;5015535;28;20502;-80
2022/02/06 06:24:56;;;;;;;4.23;1.33;;;5.90;97.30;;;;;;5032380;28;20750;-81
2022/02/06 06:27:22;;;;;;;6.67;1.47;;;5.90;97.30;;;;;;5032489;28;20184;-80
2022/02/06 06:29:47;;;;;;;1.53;1.50;;;5.90;97.30;;;;;;5016603;28;20995;-80
2022/02/06 06:32:13;;;;;;;2.67;1.20;;;5.90;97.30;;;;;;5034244;28;20432;-80
2022/02/06 06:34:39;;;;;;;4.53;1.10;;;5.90;97.30;;;;;;5032971;28;20174;-81
2022/02/06 06:37:05;;;;;;;1.93;1.27;;;5.90;97.30;;;;;;5021291;28;20467;-77
2022/02/06 06:39:36;;;;;;;2.00;1.07;;;5.90;97.30;;;;;;5005830;28;20180;-78
2022/02/06 06:42:03;;;;;;;1.17;1.00;;;5.90;97.30;;;;;;5007246;28;20318;-76
2022/02/06 06:44:28;;;;;;;1.80;1.50;;;5.90;97.30;;;;;;5000270;28;20469;-78
2022/02/06 06:46:54;;;;;;;1.73;1.10;;;6.00;97.30;;;;;;5011589;28;20470;-77
2022/02/06 06:49:20;;;;;;;1.60;1.30;;;6.00;97.30;;;;;;5012762;28;20181;-79
2022/02/06 06:51:46;;;;;;;3.53;1.30;;;6.00;97.30;;;;;;5029669;28;20303;-77
2022/02/06 06:54:16;;;;;;;2.97;1.20;;;6.00;97.30;;;;;;5004660;28;20227;-79
2022/02/06 06:56:51;;;;;;;23.33;1.80;;;6.00;97.30;;;;;;4996180;28;20464;-79
2022/02/06 06:59:43;;;;;;;2.27;1.60;;;6.10;97.30;;;;;;5012668;28;20464;-77
2022/02/06 07:02:27;;;;;;;4.00;1.40;;;6.10;97.30;;;;;;5012730;28;20547;-77
2022/02/06 07:05:03;;;;;;;2.30;1.30;;;6.10;97.30;;;;;;5015387;28;20411;-79
2022/02/06 07:07:30;;;;;;;1.30;1.23;;;6.10;97.30;;;;;;5018882;28;20970;-79
2022/02/06 07:09:56;;;;;;;4.70;1.87;;;6.10;97.30;;;;;;5003753;28;20433;-79
2022/02/06 07:12:22;;;;;;;2.47;1.60;;;6.10;97.30;;;;;;4994088;28;20818;-78
2022/02/06 07:14:49;;;;;;;4.20;1.90;;;6.10;97.30;;;;;;5007023;28;20263;-77
2022/02/06 07:17:16;;;;;;;1.87;1.60;;;6.10;97.30;;;;;;4994995;28;20467;-79
2022/02/06 07:19:43;;;;;;;5.73;1.30;;;6.10;97.30;;;;;;4995732;28;20425;-79
2022/02/06 07:22:13;;;;;;;5.30;1.80;;;6.20;97.30;;;;;;4993531;28;20460;-78
2022/02/06 07:24:39;;;;;;;2.60;1.90;;;6.20;97.30;;;;;;4994229;28;20409;-75
2022/02/06 07:27:18;;;;;;;2.13;1.40;;;6.20;97.30;;;;;;5012083;28;20428;-76
2022/02/06 07:29:43;;;;;;;2.83;1.80;;;6.30;97.30;;;;;;5008054;28;20412;-75
2022/02/06 07:32:09;;;;;;;5.80;1.60;;;6.60;97.30;;;;;;4996104;28;20459;-76
2022/02/06 07:34:35;;;;;;;2.70;1.70;;;6.90;97.30;;;;;;4997014;28;20192;-78
2022/02/06 07:37:00;;;;;;;1.80;1.33;;;6.80;97.30;;;;;;4994300;28;20417;-81
2022/02/06 07:39:26;;;;;;;9.40;1.77;;;6.70;97.30;;;;;;4994660;28;20189;-77
2022/02/06 07:41:52;;;;;;;3.10;1.47;;;6.60;97.30;;;;;;4994919;28;20237;-77
2022/02/06 07:44:18;;;;;;;4.00;1.70;;;6.60;97.30;;;;;;4994992;28;20221;-75
2022/02/06 07:46:46;;;;;;;2.57;1.30;;;6.60;97.30;;;;;;4995532;28;20182;-76
2022/02/06 07:49:14;;;;;;;5.03;1.57;;;6.60;97.30;;;;;;4996179;28;20179;-78
2022/02/06 07:51:39;;;;;;;2.63;1.50;;;6.70;97.30;;;;;;4993457;28;20630;-77
2022/02/06 07:54:06;;;;;;;5.23;1.43;;;6.60;97.30;;;;;;4994724;28;20923;-77
2022/02/06 07:56:32;;;;;;;2.60;1.40;;;6.70;97.30;;;;;;4994468;28;20190;-77
2022/02/06 07:58:58;;;;;;;1.87;1.00;;;6.70;97.30;;;;;;4993858;28;20417;-78
2022/02/06 08:01:24;;;;;;;3.53;1.93;;;6.70;97.30;;;;;;4992418;28;20672;-77
2022/02/06 08:03:50;;;;;;;1.90;1.63;;;6.70;97.30;;;;;;4992491;28;21004;-77
2022/02/06 08:06:16;;;;;;;1.57;1.20;;;6.70;97.30;;;;;;4993183;28;20782;-79
2022/02/06 08:08:42;;;;;;;2.93;1.00;;;6.80;97.30;;;;;;5003480;28;20185;-77
2022/02/06 08:11:12;;;;;;;2.33;1.20;;;6.80;97.30;;;;;;5012390;28;20181;-77
2022/02/06 08:13:41;;;;;;;1.80;1.10;;;6.80;97.30;;;;;;5014149;28;20428;-78
2022/02/06 08:16:08;;;;;;;2.90;1.43;;;6.80;97.30;;;;;;5013644;28;20416;-77
2022/02/06 08:18:37;;;;;;;7.20;1.80;;;6.80;97.30;;;;;;5012730;28;20416;-79
2022/02/06 08:21:06;;;;;;;1.30;1.20;;;6.80;97.30;;;;;;5012888;28;20454;-78
2022/02/06 08:23:32;;;;;;;1.97;1.10;;;6.90;97.30;;;;;;5013709;28;20483;-78
2022/02/06 08:25:59;;;;;;;1.03;1.00;;;6.90;97.30;;;;;;4996190;28;20448;-78
2022/02/06 08:28:24;;;;;;;1.53;1.10;;;6.90;97.30;;;;;;5011958;28;20420;-77
2022/02/06 08:30:50;;;;;;;2.17;1.30;;;6.90;97.30;;;;;;5011983;28;20475;-78
2022/02/06 08:33:16;;;;;;;1.83;1.33;;;6.90;97.30;;;;;;5012789;28;20572;-77
2022/02/06 08:35:42;;;;;;;1.70;1.33;;;6.90;97.30;;;;;;5014355;28;20203;-76
2022/02/06 08:38:10;;;;;;;2.77;1.13;;;7.00;97.30;;;;;;5012903;28;20487;-78
2022/02/06 08:40:36;;;;;;;1.10;1.00;;;7.00;97.30;;;;;;5012534;28;20456;-79
2022/02/06 08:43:02;;;;;;;2.50;1.60;;;7.00;97.30;;;;;;5011896;28;20518;-79
2022/02/06 08:45:29;;;;;;;1.13;1.03;;;7.00;97.30;;;;;;4999419;28;20567;-77
2022/02/06 08:47:56;;;;;;;2.47;1.43;;;7.00;97.30;;;;;;4993048;28;20185;-79
2022/02/06 08:50:21;;;;;;;23.17;3.47;;;7.00;97.30;;;;;;4992222;28;20420;-79
2022/02/06 08:52:47;;;;;;;5.03;1.30;;;7.10;97.30;;;;;;5009294;28;20814;-79
2022/02/06 08:55:14;;;;;;;1.23;1.13;;;7.10;97.30;;;;;;5011203;28;20187;-79
2022/02/06 08:57:50;;;;;;;2.63;1.30;;;7.10;97.30;;;;;;5010628;28;20187;-79
2022/02/06 09:00:18;;;;;;;1.20;1.03;;;7.10;97.30;;;;;;5011873;28;20424;-80
2022/02/06 09:02:43;;;;;;;4.03;1.40;;;7.10;97.30;;;;;;5010649;28;20836;-78
2022/02/06 09:05:09;;;;;;;2.00;1.30;;;7.20;97.30;;;;;;5012263;28;20408;-77
2022/02/06 09:07:35;;;;;;;2.00;1.00;;;7.20;97.30;;;;;;5025667;28;20198;-78
2022/02/06 09:10:01;;;;;;;1.73;1.30;;;7.20;97.30;;;;;;5011579;28;20666;-78
2022/02/06 09:12:31;;;;;;;2.60;1.60;;;7.20;97.30;;;;;;5011463;28;20201;-78
2022/02/06 09:14:57;;;;;;;1.47;1.10;;;7.20;97.30;;;;;;5013088;28;20447;-77
2022/02/06 09:17:22;;;;;;;2.53;1.63;;;7.20;97.30;;;;;;5010245;28;20472;-77
2022/02/06 09:19:49;;;;;;;1.90;1.23;;;7.30;97.30;;;;;;5010675;28;20448;-78
2022/02/06 09:22:15;;;;;;;1.87;1.40;;;7.30;97.30;;;;;;5010372;28;20216;-78
2022/02/06 09:24:42;;;;;;;3.70;1.57;;;7.30;97.30;;;;;;5012537;28;20800;-77
2022/02/06 09:27:09;;;;;;;2.13;1.30;;;7.30;97.30;;;;;;5006420;28;20387;-79
2022/02/06 09:29:35;;;;;;;1.80;1.10;;;7.30;97.30;;;;;;5000415;28;20429;-79
2022/02/06 09:37:07;;;;;;;3.83;1.90;;;7.40;97.30;;;;;;5010211;28;21032;-79
2022/02/06 09:39:38;;;;;;;2.60;2.00;;;7.40;97.30;;;;;;4994946;28;20779;-80
2022/02/06 09:42:04;;;;;;;1.07;0.97;;;7.50;97.30;;;;;;5009612;28;20887;-79
2022/02/06 09:44:31;;;;;;;2.13;1.10;;;7.50;97.30;;;;;;5000520;28;20830;-79
2022/02/06 09:46:58;;;;;;;1.50;1.30;;;7.50;97.30;;;;;;4985372;28;20434;-78
2022/02/06 09:49:26;;;;;;;2.20;1.73;;;7.60;97.30;;;;;;4989212;28;20479;-79
2022/02/06 09:51:52;;;;;;;2.40;1.10;;;7.60;97.30;;;;;;4980886;28;20527;-79
2022/02/06 09:54:20;;;;;;;1.50;1.40;;;7.60;97.30;;;;;;4970372;28;20418;-79
2022/02/06 09:56:50;;;;;;;2.40;1.47;;;7.60;97.30;;;;;;4971598;28;20437;-80
2022/02/06 09:59:18;;;;;;;2.40;1.17;;;7.70;97.30;;;;;;4969808;28;20437;-80
2022/02/06 10:01:47;;;;;;;1.47;1.40;;;7.70;97.30;;;;;;4973269;28;20520;-78
2022/02/06 10:04:20;;;;;;;1.30;1.10;;;7.80;97.30;;;;;;4976720;28;20460;-80
2022/02/06 10:07:07;;;;;;;1.00;1.00;;;7.80;97.30;;;;;;4992893;28;20429;-79
2022/02/06 10:09:54;;;;;;;1.60;1.20;;;7.90;97.30;;;;;;4982428;28;20426;-80
2022/02/06 10:12:21;;;;;;;1.23;1.17;;;7.90;97.30;;;;;;4981648;28;20445;-79
2022/02/06 10:14:47;;;;;;;1.10;1.00;;;8.00;97.30;;;;;;4980483;28;20968;-80
2022/02/06 10:17:12;;;;;;;1.47;1.07;;;8.10;97.30;;;;;;4990010;28;20409;-79
2022/02/06 10:20:01;;;;;;;3.03;1.20;;;8.10;97.30;;;;;;4976051;28;20189;-79
2022/02/06 10:22:42;;;;;;;1.20;1.10;;;8.10;97.30;;;;;;4974073;28;20432;-80
2022/02/06 10:25:10;;;;;;;2.73;1.90;;;8.10;97.30;;;;;;4974104;28;20901;-79
2022/02/06 10:30:42;;;;;;;1.27;1.17;;;8.20;97.30;;;;;;4974475;28;20441;-79
2022/02/06 10:33:18;;;;;;;2.37;1.40;;;8.20;97.30;;;;;;4973987;28;20472;-81
2022/02/06 10:35:55;;;;;;;1.30;1.00;;;8.30;97.30;;;;;;5004862;28;20992;-79
2022/02/06 10:38:23;;;;;;;1.67;1.30;;;8.30;97.30;;;;;;5013390;28;20423;-79
2022/02/06 10:41:05;;;;;;;1.23;1.20;;;8.20;97.30;;;;;;5011727;28;20423;-79
2022/02/06 10:43:31;;;;;;;1.10;1.10;;;8.20;97.30;;;;;;5011753;28;20463;-80
2022/02/06 10:46:17;;;;;;;2.30;1.50;;;8.10;97.30;;;;;;5011551;28;20412;-78
2022/02/06 10:48:48;;;;;;;1.77;1.23;;;8.10;97.30;;;;;;5011131;28;20416;-80
2022/02/06 10:51:43;;;;;;;1.40;1.17;;;8.10;97.30;;;;;;5011759;28;20825;-79
2022/02/06 10:54:34;;;;;;;1.77;1.30;;;8.10;97.30;;;;;;5012106;28;20491;-79
2022/02/06 10:57:04;;;;;;;2.00;1.20;;;8.10;97.30;;;;;;5004331;28;20416;-80
2022/02/06 10:59:43;;;;;;;4.77;1.60;;;8.10;97.30;;;;;;5011351;28;20412;-79
2022/02/06 11:02:23;;;;;;;9.10;1.23;;;8.10;97.30;;;;;;5012362;28;20526;-78
2022/02/06 11:05:17;;;;;;;1.40;1.33;;;8.10;97.30;;;;;;5011475;28;20423;-79
2022/02/06 11:08:01;;;;;;;1.13;1.10;;;8.10;97.30;;;;;;5010903;28;20552;-79
2022/02/06 11:10:30;;;;;;;2.10;1.00;;;8.10;97.30;;;;;;5011022;28;20456;-80
2022/02/06 11:13:02;;;;;;;1.20;1.10;;;8.10;97.30;;;;;;5009391;28;20440;-79
2022/02/06 11:15:32;;;;;;;1.23;1.13;;;8.00;97.30;;;;;;5012323;28;20482;-79
2022/02/06 11:18:21;;;;;;;2.70;1.10;;;8.00;97.30;;;;;;5012047;28;20412;-80
2022/02/06 11:20:56;;;;;;;1.23;1.10;;;8.00;97.30;;;;;;5010869;28;20423;-79
2022/02/06 11:23:22;;;;;;;1.17;1.10;;;8.00;97.30;;;;;;5011998;28;20459;-80
2022/02/06 11:25:50;;;;;;;3.23;1.20;;;8.00;97.30;;;;;;5012207;28;20411;-80
2022/02/06 11:28:17;;;;;;;2.50;1.00;;;8.00;97.30;;;;;;5010979;28;20416;-79
2022/02/06 11:30:43;;;;;;;4.10;2.60;;;8.00;97.30;;;;;;5009654;28;20507;-79
2022/02/06 11:33:10;;;;;;;1.40;1.20;;;8.00;97.30;;;;;;5010346;28;20451;-79
2022/02/06 11:35:42;;;;;;;1.83;1.60;;;8.00;97.30;;;;;;4995879;28;20490;-79
2022/02/06 11:44:20;;;;;;;1.83;1.50;;;8.00;97.30;;;;;;4992079;28;20840;-80
2022/02/06 11:47:12;;;;;;;1.30;1.20;;;8.00;97.30;;;;;;4992052;28;21000;-79
2022/02/06 11:49:40;;;;;;;8.13;1.20;;;8.00;97.30;;;;;;4988080;28;20953;-79
2022/02/06 11:52:06;;;;;;;1.10;1.10;;;8.00;97.30;;;;;;4991073;28;20765;-78
2022/02/06 11:54:35;;;;;;;1.20;1.10;;;7.90;97.30;;;;;;4990667;28;20865;-79
2022/02/06 11:59:39;;;;;;;1.40;1.30;;;8.00;97.30;;;;;;4992233;28;20401;-79
2022/02/06 12:02:38;;;;;;;3.00;1.20;;;8.00;97.30;;;;;;4990689;28;20531;-79
2022/02/06 12:05:16;;;;;;;1.27;1.10;;;8.00;97.30;;;;;;4979373;28;20560;-80
2022/02/06 12:08:09;;;;;;;1.50;1.20;;;8.00;97.30;;;;;;4990652;28;20496;-79
2022/02/06 12:10:34;;;;;;;2.73;1.70;;;7.90;97.30;;;;;;4990388;28;20413;-80
2022/02/06 12:13:32;;;;;;;1.97;1.40;;;7.90;97.30;;;;;;4991543;28;20429;-79
2022/02/06 12:16:01;;;;;;;1.00;1.00;;;7.90;97.30;;;;;;4976699;28;20560;-79
2022/02/06 12:18:31;;;;;;;1.17;1.03;;;7.90;97.30;;;;;;5010523;28;20576;-79
2022/02/06 12:21:07;;;;;;;1.53;1.43;;;7.90;97.30;;;;;;5010032;28;20423;-79
2022/02/06 12:23:40;;;;;;;1.13;1.10;;;7.90;97.30;;;;;;4984409;28;20461;-79
2022/02/06 12:26:31;;;;;;;0.90;0.80;;;7.90;97.30;;;;;;4992669;28;20424;-79
2022/02/06 12:29:15;;;;;;;1.13;1.03;;;8.00;97.30;;;;;;4991371;28;20440;-78
2022/02/06 12:31:49;;;;;;;1.13;1.03;;;8.00;97.30;;;;;;4990368;28;20433;-79
2022/02/06 12:34:40;;;;;;;2.00;1.00;;;8.00;97.30;;;;;;4993420;28;20500;-80
2022/02/06 12:37:18;;;;;;;0.93;0.87;;;8.00;97.30;;;;;;5009822;28;20769;-80
2022/02/06 12:39:44;;;;;;;1.40;1.10;;;8.00;97.30;;;;;;4977028;28;20430;-80
2022/02/06 12:42:11;;;;;;;1.30;1.23;;;8.00;97.30;;;;;;4970411;28;20444;-79
2022/02/06 12:44:37;;;;;;;1.83;1.03;;;8.00;97.30;;;;;;4979172;28;20209;-79
2022/02/06 12:47:11;;;;;;;3.40;1.30;;;8.00;97.30;;;;;;4988950;28;20460;-80
2022/02/06 12:49:38;;;;;;;1.10;1.00;;;8.00;97.30;;;;;;5009467;28;20651;-77
2022/02/06 12:52:05;;;;;;;3.53;1.57;;;8.00;97.30;;;;;;5008330;28;20955;-80
2022/02/06 12:54:30;;;;;;;1.23;1.17;;;8.00;97.30;;;;;;5007992;28;20420;-80
2022/02/06 12:56:58;;;;;;;1.33;1.00;;;8.00;97.30;;;;;;5008472;28;20420;-79
2022/02/06 12:59:27;;;;;;;3.40;1.60;;;8.00;97.30;;;;;;5008158;28;20235;-79
2022/02/06 13:01:55;;;;;;;1.17;1.07;;;8.00;97.30;;;;;;4994191;28;20547;-79
2022/02/06 13:04:27;;;;;;;2.63;1.80;;;8.00;97.30;;;;;;4972529;28;20805;-80
2022/02/06 13:06:53;;;;;;;1.67;1.57;;;8.10;97.30;;;;;;4973845;28;20422;-80
2022/02/06 13:09:20;;;;;;;1.00;0.97;;;8.10;97.30;;;;;;4992478;28;20483;-78
2022/02/06 13:12:08;;;;;;;1.70;1.60;;;8.20;97.30;;;;;;4998859;28;21003;-80
2022/02/06 13:17:27;;;;;;;1.57;1.50;;;8.40;97.30;;;;;;4994062;28;20792;-80
2022/02/06 13:22:51;;;;;;;1.20;1.10;;;8.50;97.30;;;;;;4996452;28;20467;-80
2022/02/06 13:31:39;;;;;;;1.07;0.97;;;8.60;97.30;;;;;;4950317;28;20422;-80
2022/02/06 13:39:13;;;;;;;0.90;0.80;;;8.60;96.90;;;;;;4977622;28;20426;-79
2022/02/06 13:41:39;;;;;;;0.97;0.87;;;8.60;97.10;;;;;;4975438;28;20452;-80
2022/02/06 13:44:16;;;;;;;1.83;0.90;;;8.50;96.80;;;;;;4977172;28;20469;-78
2022/02/06 13:46:42;;;;;;;1.07;0.87;;;8.50;96.80;;;;;;4992112;28;20432;-79
2022/02/06 13:49:09;;;;;;;0.90;0.80;;;8.40;96.90;;;;;;4998457;28;20508;-80
2022/02/06 13:51:48;;;;;;;0.93;0.83;;;8.40;96.90;;;;;;4995626;28;20531;-81
2022/02/06 13:54:15;;;;;;;1.00;0.90;;;8.40;97.00;;;;;;4997582;28;20413;-81
2022/02/06 13:56:41;;;;;;;1.00;0.90;;;8.40;97.20;;;;;;4995078;28;20436;-80
2022/02/06 13:59:14;;;;;;;0.97;0.97;;;8.30;97.20;;;;;;4995603;28;20429;-81
2022/02/06 14:01:42;;;;;;;1.03;1.00;;;8.30;97.30;;;;;;4993799;28;20194;-81
2022/02/06 14:04:20;;;;;;;2.23;1.93;;;8.30;97.30;;;;;;4995573;28;20994;-80
2022/02/06 14:06:55;;;;;;;1.00;0.87;;;8.30;97.30;;;;;;4995798;28;20950;-81
2022/02/06 14:09:29;;;;;;;1.10;0.90;;;8.20;97.30;;;;;;4995860;28;20416;-80
2022/02/06 14:12:05;;;;;;;0.90;0.80;;;8.20;97.30;;;;;;4995772;28;20464;-80
2022/02/06 14:14:47;;;;;;;1.00;0.90;;;8.20;97.30;;;;;;4996942;28;20448;-80
2022/02/06 14:17:21;;;;;;;0.90;0.90;;;8.20;97.30;;;;;;4995429;28;20425;-80
2022/02/06 14:19:48;;;;;;;0.80;0.70;;;8.20;97.30;;;;;;4996735;28;20409;-80
2022/02/06 14:22:30;;;;;;;0.83;0.80;;;8.10;97.30;;;;;;5012272;28;20952;-80
2022/02/06 14:24:59;;;;;;;1.10;1.00;;;8.10;97.30;;;;;;4995169;28;20451;-81
2022/02/06 14:27:43;;;;;;;0.97;0.87;;;8.00;97.30;;;;;;4995427;28;20425;-80
2022/02/06 14:30:11;;;;;;;0.90;0.80;;;7.90;97.30;;;;;;4995542;28;20432;-79
2022/02/06 14:33:03;;;;;;;1.23;1.13;;;7.90;97.30;;;;;;4995409;28;20491;-81
2022/02/06 14:35:55;;;;;;;1.17;1.07;;;7.80;97.30;;;;;;5009526;28;20926;-80
2022/02/06 14:38:27;;;;;;;0.90;0.80;;;7.70;97.30;;;;;;4988359;28;20422;-81
2022/02/06 14:41:22;;;;;;;1.10;1.00;;;7.70;97.30;;;;;;4976005;28;20426;-82
2022/02/06 14:43:53;;;;;;;1.10;1.00;;;7.70;97.30;;;;;;4976573;28;20465;-81
2022/02/06 14:46:19;;;;;;;1.20;1.10;;;7.60;97.30;;;;;;4978473;28;20914;-81
2022/02/06 14:48:45;;;;;;;1.10;1.00;;;7.50;97.30;;;;;;4994983;28;20421;-80
2022/02/06 14:51:13;;;;;;;0.80;0.70;;;7.40;97.30;;;;;;4987536;28;20987;-79
2022/02/06 14:53:39;;;;;;;1.70;0.93;;;7.30;97.30;;;;;;5005109;28;20748;-78
2022/02/06 14:56:08;;;;;;;1.10;1.00;;;7.30;97.30;;;;;;5012455;28;20862;-78
2022/02/06 14:58:33;;;;;;;0.90;0.80;;;7.20;97.30;;;;;;4976831;28;20966;-81
2022/02/06 15:00:59;;;;;;;2.03;1.40;;;7.30;97.30;;;;;;5002418;28;20418;-79
2022/02/06 15:03:24;;;;;;;1.10;1.10;;;7.20;97.30;;;;;;4992265;28;20721;-79
2022/02/06 15:05:51;;;;;;;1.30;1.10;;;7.20;97.30;;;;;;4993185;28;20178;-80
2022/02/06 15:08:18;;;;;;;1.13;1.03;;;7.10;97.30;;;;;;4993476;28;20184;-80
2022/02/06 15:10:44;;;;;;;1.70;1.30;;;7.10;97.30;;;;;;4988061;28;20417;-80
2022/02/06 15:13:11;;;;;;;1.00;1.00;;;7.10;97.30;;;;;;4993733;28;20449;-80
2022/02/06 15:15:42;;;;;;;1.93;1.10;;;7.10;97.30;;;;;;4995376;28;20405;-80
2022/02/06 15:18:23;;;;;;;1.23;1.13;;;7.10;97.30;;;;;;4994202;28;20465;-80
2022/02/06 15:20:53;;;;;;;1.30;1.20;;;7.10;97.30;;;;;;4995758;28;20417;-81
2022/02/06 15:23:20;;;;;;;1.07;0.97;;;7.00;97.30;;;;;;4994526;28;21001;-79
2022/02/06 15:25:46;;;;;;;0.93;0.93;;;7.00;97.30;;;;;;4994492;28;20444;-79
2022/02/06 15:28:11;;;;;;;1.57;0.90;;;7.00;97.30;;;;;;4981818;28;20422;-80
2022/02/06 15:30:37;;;;;;;2.93;1.10;;;7.00;97.30;;;;;;4975364;28;20189;-80
2022/02/06 15:33:04;;;;;;;1.23;1.17;;;7.00;97.30;;;;;;4974348;28;20672;-79
2022/02/06 15:35:31;;;;;;;3.33;1.20;;;7.00;97.30;;;;;;5001891;28;20420;-80
2022/02/06 15:40:43;;;;;;;1.00;1.00;;;7.00;97.30;;;;;;5036001;23;20522;-87
2022/02/06 15:43:16;;;;;;;1.57;1.00;;;7.00;97.30;;;;;;5028392;28;20557;-88
2022/02/06 15:45:42;;;;;;;1.20;1.00;;;6.90;97.30;;;;;;5013652;28;20443;-88
2022/02/06 15:48:15;;;;;;;1.07;1.00;;;7.00;97.30;;;;;;5000534;28;20424;-88
2022/02/06 15:50:40;;;;;;;1.07;0.97;;;7.00;97.30;;;;;;4995314;28;20227;-87
2022/02/06 15:53:13;;;;;;;2.30;2.10;;;7.00;97.30;;;;;;4999977;28;20427;-88
2022/02/06 15:55:44;;;;;;;0.90;0.80;;;7.00;97.30;;;;;;5012837;28;20184;-87
2022/02/06 15:58:12;;;;;;;2.37;1.60;;;7.00;97.30;;;;;;5013328;28;20427;-87
2022/02/06 16:00:40;;;;;;;1.53;1.30;;;7.00;97.30;;;;;;5000465;28;20962;-87
2022/02/06 16:03:06;;;;;;;2.07;1.20;;;7.10;97.30;;;;;;4993039;28;20489;-87
2022/02/06 16:05:32;;;;;;;0.87;0.83;;;7.10;97.30;;;;;;4993728;28;20479;-87